sensor_id;sensor_type;location;lat;lon;timestamp;P1;durP1;ratioP1;P2;durP2;ratioP2
69057;SDS011;56128;37.534;-122.308;2022-11-02T00:02:15;7.50;;;1.50;;
69057;SDS011;56128;37.534;-122.308;2022-11-02T00:04:41;8.10;;;1.75;;
69057;SDS011;56128;37.534;-122.308;2022-11-02T00:07:07;8.30;;;1.73;;
69057;SDS011;56128;37.534;-122.308;2022-11-02T00:09:33;8.73;;;1.55;;
69057;SDS011;56128;37.534;-122.308;2022-11-02T00:11:59;16.55;;;2.50;;
69057;SDS011;56128;37.534;-122.308;2022-11-02T00:14:26;7.70;;;2.00;;
69057;SDS011;56128;37.534;-122.308;2022-11-02T00:16:52;9.23;;;1.95;;
69057;SDS011;56128;37.534;-122.308;2022-11-02T00:19:18;7.78;;;1.58;;
69057;SDS011;56128;37.534;-122.308;2022-11-02T00:21:44;8.10;;;1.83;;
69057;SDS011;56128;37.534;-122.308;2022-11-02T00:24:11;8.15;;;1.88;;
69057;SDS011;56128;37.534;-122.308;2022-11-02T00:26:37;10.15;;;1.52;;
69057;SDS011;56128;37.534;-122.308;2022-11-02T00:29:03;6.03;;;1.50;;
69057;SDS011;56128;37.534;-122.308;2022-11-02T00:31:30;7.13;;;1.27;;
69057;SDS011;56128;37.534;-122.308;2022-11-02T00:33:56;7.03;;;1.83;;
69057;SDS011;56128;37.534;-122.308;2022-11-02T00:36:22;9.10;;;1.65;;
69057;SDS011;56128;37.534;-122.308;2022-11-02T00:38:49;5.65;;;1.50;;
69057;SDS011;56128;37.534;-122.308;2022-11-02T00:41:19;3.63;;;1.08;;
69057;SDS011;56128;37.534;-122.308;2022-11-02T00:43:46;3.80;;;0.98;;
69057;SDS011;56128;37.534;-122.308;2022-11-02T00:46:12;7.93;;;1.33;;
69057;SDS011;56128;37.534;-122.308;2022-11-02T00:48:38;4.88;;;1.13;;
69057;SDS011;56128;37.534;-122.308;2022-11-02T00:51:04;7.07;;;1.17;;
69057;SDS011;56128;37.534;-122.308;2022-11-02T00:53:31;6.47;;;1.10;;
69057;SDS011;56128;37.534;-122.308;2022-11-02T00:55:57;6.30;;;0.85;;
69057;SDS011;56128;37.534;-122.308;2022-11-02T00:58:23;5.00;;;1.27;;
69057;SDS011;56128;37.534;-122.308;2022-11-02T01:00:49;4.30;;;1.10;;
69057;SDS011;56128;37.534;-122.308;2022-11-02T01:03:15;3.95;;;1.02;;
69057;SDS011;56128;37.534;-122.308;2022-11-02T01:05:41;3.20;;;1.00;;
69057;SDS011;56128;37.534;-122.308;2022-11-02T01:08:07;7.18;;;1.80;;
69057;SDS011;56128;37.534;-122.308;2022-11-02T01:10:33;5.57;;;1.73;;
69057;SDS011;56128;37.534;-122.308;2022-11-02T01:13:00;5.57;;;1.58;;
69057;SDS011;56128;37.534;-122.308;2022-11-02T01:15:26;7.68;;;1.92;;
69057;SDS011;56128;37.534;-122.308;2022-11-02T01:17:52;9.27;;;1.55;;
69057;SDS011;56128;37.534;-122.308;2022-11-02T01:20:18;4.65;;;1.10;;
69057;SDS011;56128;37.534;-122.308;2022-11-02T01:22:44;6.40;;;1.67;;
69057;SDS011;56128;37.534;-122.308;2022-11-02T01:25:10;5.47;;;1.50;;
69057;SDS011;56128;37.534;-122.308;2022-11-02T01:27:37;5.40;;;2.25;;
69057;SDS011;56128;37.534;-122.308;2022-11-02T01:30:03;7.65;;;1.48;;
69057;SDS011;56128;37.534;-122.308;2022-11-02T01:32:30;4.82;;;1.48;;
69057;SDS011;56128;37.534;-122.308;2022-11-02T01:34:56;7.90;;;2.30;;
69057;SDS011;56128;37.534;-122.308;2022-11-02T01:37:22;7.25;;;1.67;;
69057;SDS011;56128;37.534;-122.308;2022-11-02T01:39:48;15.00;;;2.58;;
69057;SDS011;56128;37.534;-122.308;2022-11-02T01:42:18;5.75;;;1.40;;
69057;SDS011;56128;37.534;-122.308;2022-11-02T01:44:46;16.42;;;2.38;;
69057;SDS011;56128;37.534;-122.308;2022-11-02T01:50:17;7.10;;;1.23;;
69057;SDS011;56128;37.534;-122.308;2022-11-02T01:52:45;7.07;;;1.70;;
69057;SDS011;56128;37.534;-122.308;2022-11-02T01:55:21;5.82;;;1.60;;
69057;SDS011;56128;37.534;-122.308;2022-11-02T01:57:56;4.70;;;1.40;;
69057;SDS011;56128;37.534;-122.308;2022-11-02T02:00:26;7.38;;;0.88;;
69057;SDS011;56128;37.534;-122.308;2022-11-02T02:05:57;6.60;;;1.40;;
69057;SDS011;56128;37.534;-122.308;2022-11-02T02:08:28;4.28;;;1.60;;
69057;SDS011;56128;37.534;-122.308;2022-11-02T02:10:56;5.03;;;1.95;;
69057;SDS011;56128;37.534;-122.308;2022-11-02T02:13:23;5.72;;;2.00;;
69057;SDS011;56128;37.534;-122.308;2022-11-02T02:35:15;5.50;;;1.58;;
69057;SDS011;56128;37.534;-122.308;2022-11-02T02:37:57;7.30;;;1.58;;
69057;SDS011;56128;37.534;-122.308;2022-11-02T02:40:29;4.88;;;1.45;;
69057;SDS011;56128;37.534;-122.308;2022-11-02T02:43:04;5.22;;;1.77;;
69057;SDS011;56128;37.534;-122.308;2022-11-02T02:45:53;7.57;;;1.23;;
69057;SDS011;56128;37.534;-122.308;2022-11-02T02:48:25;7.10;;;1.90;;
69057;SDS011;56128;37.534;-122.308;2022-11-02T02:50:58;6.25;;;1.50;;
69057;SDS011;56128;37.534;-122.308;2022-11-02T02:53:42;7.35;;;1.73;;
69057;SDS011;56128;37.534;-122.308;2022-11-02T02:56:12;9.25;;;1.40;;
69057;SDS011;56128;37.534;-122.308;2022-11-02T02:58:49;7.72;;;1.65;;
69057;SDS011;56128;37.534;-122.308;2022-11-02T03:01:38;9.55;;;1.65;;
69057;SDS011;56128;37.534;-122.308;2022-11-02T03:04:13;10.55;;;1.80;;
69057;SDS011;56128;37.534;-122.308;2022-11-02T03:06:43;13.15;;;2.00;;
69057;SDS011;56128;37.534;-122.308;2022-11-02T03:09:22;8.07;;;1.90;;
69057;SDS011;56128;37.534;-122.308;2022-11-02T03:12:16;15.02;;;2.60;;
69057;SDS011;56128;37.534;-122.308;2022-11-02T03:17:29;6.82;;;1.90;;
69057;SDS011;56128;37.534;-122.308;2022-11-02T03:25:29;10.25;;;1.85;;
69057;SDS011;56128;37.534;-122.308;2022-11-02T03:31:33;9.95;;;1.63;;
69057;SDS011;56128;37.534;-122.308;2022-11-02T03:34:02;12.52;;;2.20;;
69057;SDS011;56128;37.534;-122.308;2022-11-02T03:36:47;8.68;;;1.83;;
69057;SDS011;56128;37.534;-122.308;2022-11-02T03:39:34;10.70;;;2.05;;
69057;SDS011;56128;37.534;-122.308;2022-11-02T03:42:03;12.80;;;2.45;;
69057;SDS011;56128;37.534;-122.308;2022-11-02T03:44:32;14.35;;;2.33;;
69057;SDS011;56128;37.534;-122.308;2022-11-02T03:47:03;15.07;;;2.40;;
69057;SDS011;56128;37.534;-122.308;2022-11-02T03:49:31;15.43;;;2.30;;
69057;SDS011;56128;37.534;-122.308;2022-11-02T03:52:01;18.67;;;2.50;;
69057;SDS011;56128;37.534;-122.308;2022-11-02T03:57:23;15.45;;;2.22;;
69057;SDS011;56128;37.534;-122.308;2022-11-02T04:00:04;17.83;;;2.60;;
69057;SDS011;56128;37.534;-122.308;2022-11-02T04:02:33;10.77;;;2.30;;
69057;SDS011;56128;37.534;-122.308;2022-11-02T04:05:01;13.40;;;2.17;;
69057;SDS011;56128;37.534;-122.308;2022-11-02T04:07:28;18.58;;;3.05;;
69057;SDS011;56128;37.534;-122.308;2022-11-02T04:10:19;12.57;;;2.40;;
69057;SDS011;56128;37.534;-122.308;2022-11-02T04:12:45;12.80;;;2.10;;
69057;SDS011;56128;37.534;-122.308;2022-11-02T04:15:30;9.77;;;3.13;;
69057;SDS011;56128;37.534;-122.308;2022-11-02T04:17:56;12.95;;;2.10;;
69057;SDS011;56128;37.534;-122.308;2022-11-02T04:20:41;16.15;;;2.42;;
69057;SDS011;56128;37.534;-122.308;2022-11-02T04:23:07;14.60;;;2.75;;
69057;SDS011;56128;37.534;-122.308;2022-11-02T04:25:52;18.08;;;2.53;;
69057;SDS011;56128;37.534;-122.308;2022-11-02T04:28:19;18.58;;;3.13;;
69057;SDS011;56128;37.534;-122.308;2022-11-02T04:30:45;15.68;;;2.97;;
69057;SDS011;56128;37.534;-122.308;2022-11-02T04:33:12;19.05;;;2.90;;
69057;SDS011;56128;37.534;-122.308;2022-11-02T04:35:57;21.63;;;3.03;;
69057;SDS011;56128;37.534;-122.308;2022-11-02T04:38:25;12.13;;;2.78;;
69057;SDS011;56128;37.534;-122.308;2022-11-02T04:41:07;12.77;;;3.10;;
69057;SDS011;56128;37.534;-122.308;2022-11-02T04:43:56;15.13;;;2.70;;
69057;SDS011;56128;37.534;-122.308;2022-11-02T04:46:23;14.00;;;2.22;;
69057;SDS011;56128;37.534;-122.308;2022-11-02T04:48:50;17.48;;;2.97;;
69057;SDS011;56128;37.534;-122.308;2022-11-02T04:51:16;15.30;;;2.42;;
69057;SDS011;56128;37.534;-122.308;2022-11-02T04:53:45;17.58;;;2.55;;
69057;SDS011;56128;37.534;-122.308;2022-11-02T04:56:12;15.23;;;2.40;;
69057;SDS011;56128;37.534;-122.308;2022-11-02T04:58:38;15.75;;;2.80;;
69057;SDS011;56128;37.534;-122.308;2022-11-02T05:01:05;13.23;;;2.90;;
69057;SDS011;56128;37.534;-122.308;2022-11-02T05:03:33;21.52;;;2.90;;
69057;SDS011;56128;37.534;-122.308;2022-11-02T05:06:00;14.35;;;2.65;;
69057;SDS011;56128;37.534;-122.308;2022-11-02T05:08:26;10.23;;;2.67;;
69057;SDS011;56128;37.534;-122.308;2022-11-02T05:10:53;21.70;;;3.35;;
69057;SDS011;56128;37.534;-122.308;2022-11-02T05:13:21;15.50;;;2.95;;
69057;SDS011;56128;37.534;-122.308;2022-11-02T05:15:48;17.42;;;2.55;;
69057;SDS011;56128;37.534;-122.308;2022-11-02T05:18:14;17.70;;;2.55;;
69057;SDS011;56128;37.534;-122.308;2022-11-02T05:20:41;18.52;;;2.15;;
69057;SDS011;56128;37.534;-122.308;2022-11-02T05:23:07;15.98;;;2.50;;
69057;SDS011;56128;37.534;-122.308;2022-11-02T05:25:33;14.30;;;2.40;;
69057;SDS011;56128;37.534;-122.308;2022-11-02T05:28:00;14.88;;;2.75;;
69057;SDS011;56128;37.534;-122.308;2022-11-02T05:30:26;13.95;;;2.70;;
69057;SDS011;56128;37.534;-122.308;2022-11-02T05:32:55;13.60;;;2.65;;
69057;SDS011;56128;37.534;-122.308;2022-11-02T05:35:21;17.50;;;3.03;;
69057;SDS011;56128;37.534;-122.308;2022-11-02T05:37:48;17.33;;;2.50;;
69057;SDS011;56128;37.534;-122.308;2022-11-02T05:40:14;16.15;;;2.83;;
69057;SDS011;56128;37.534;-122.308;2022-11-02T05:42:40;13.27;;;2.70;;
69057;SDS011;56128;37.534;-122.308;2022-11-02T05:45:06;17.45;;;2.65;;
69057;SDS011;56128;37.534;-122.308;2022-11-02T05:47:33;25.80;;;2.72;;
69057;SDS011;56128;37.534;-122.308;2022-11-02T05:49:59;14.27;;;2.88;;
69057;SDS011;56128;37.534;-122.308;2022-11-02T05:52:25;17.10;;;2.47;;
69057;SDS011;56128;37.534;-122.308;2022-11-02T05:54:51;16.02;;;2.60;;
69057;SDS011;56128;37.534;-122.308;2022-11-02T05:57:17;13.50;;;2.65;;
69057;SDS011;56128;37.534;-122.308;2022-11-02T05:59:43;11.13;;;2.60;;
69057;SDS011;56128;37.534;-122.308;2022-11-02T06:02:10;13.93;;;2.90;;
69057;SDS011;56128;37.534;-122.308;2022-11-02T06:04:36;19.88;;;2.80;;
69057;SDS011;56128;37.534;-122.308;2022-11-02T06:07:02;15.32;;;2.65;;
69057;SDS011;56128;37.534;-122.308;2022-11-02T06:09:28;15.48;;;3.28;;
69057;SDS011;56128;37.534;-122.308;2022-11-02T06:11:55;14.45;;;2.38;;
69057;SDS011;56128;37.534;-122.308;2022-11-02T06:14:21;16.40;;;2.50;;
69057;SDS011;56128;37.534;-122.308;2022-11-02T06:16:47;17.50;;;2.50;;
69057;SDS011;56128;37.534;-122.308;2022-11-02T06:19:13;15.75;;;2.90;;
69057;SDS011;56128;37.534;-122.308;2022-11-02T06:21:39;17.63;;;2.92;;
69057;SDS011;56128;37.534;-122.308;2022-11-02T06:24:05;18.60;;;3.22;;
69057;SDS011;56128;37.534;-122.308;2022-11-02T06:26:32;10.95;;;2.47;;
69057;SDS011;56128;37.534;-122.308;2022-11-02T06:28:58;16.58;;;2.90;;
69057;SDS011;56128;37.534;-122.308;2022-11-02T06:31:24;14.43;;;2.88;;
69057;SDS011;56128;37.534;-122.308;2022-11-02T06:33:50;11.57;;;2.53;;
69057;SDS011;56128;37.534;-122.308;2022-11-02T06:36:17;18.60;;;2.50;;
69057;SDS011;56128;37.534;-122.308;2022-11-02T06:38:43;11.77;;;2.33;;
69057;SDS011;56128;37.534;-122.308;2022-11-02T06:41:10;13.38;;;2.10;;
69057;SDS011;56128;37.534;-122.308;2022-11-02T06:43:36;11.63;;;2.80;;
69057;SDS011;56128;37.534;-122.308;2022-11-02T06:46:02;17.80;;;2.50;;
69057;SDS011;56128;37.534;-122.308;2022-11-02T06:48:30;14.27;;;3.50;;
69057;SDS011;56128;37.534;-122.308;2022-11-02T06:50:56;10.02;;;2.42;;
69057;SDS011;56128;37.534;-122.308;2022-11-02T06:53:22;16.48;;;2.42;;
69057;SDS011;56128;37.534;-122.308;2022-11-02T06:55:52;21.27;;;2.97;;
69057;SDS011;56128;37.534;-122.308;2022-11-02T06:58:20;15.73;;;2.47;;
69057;SDS011;56128;37.534;-122.308;2022-11-02T07:00:47;9.45;;;2.45;;
69057;SDS011;56128;37.534;-122.308;2022-11-02T07:03:13;10.70;;;2.40;;
69057;SDS011;56128;37.534;-122.308;2022-11-02T07:05:40;14.95;;;2.38;;
69057;SDS011;56128;37.534;-122.308;2022-11-02T07:08:07;17.40;;;2.97;;
69057;SDS011;56128;37.534;-122.308;2022-11-02T07:10:33;14.70;;;2.20;;
69057;SDS011;56128;37.534;-122.308;2022-11-02T07:13:00;11.43;;;2.20;;
69057;SDS011;56128;37.534;-122.308;2022-11-02T07:15:26;21.23;;;2.78;;
69057;SDS011;56128;37.534;-122.308;2022-11-02T07:17:52;12.95;;;2.58;;
69057;SDS011;56128;37.534;-122.308;2022-11-02T07:20:19;18.02;;;2.50;;
69057;SDS011;56128;37.534;-122.308;2022-11-02T07:22:52;18.35;;;2.80;;
69057;SDS011;56128;37.534;-122.308;2022-11-02T07:25:20;16.77;;;2.65;;
69057;SDS011;56128;37.534;-122.308;2022-11-02T07:27:47;19.08;;;2.90;;
69057;SDS011;56128;37.534;-122.308;2022-11-02T07:30:13;16.33;;;2.63;;
69057;SDS011;56128;37.534;-122.308;2022-11-02T07:32:40;24.25;;;3.42;;
69057;SDS011;56128;37.534;-122.308;2022-11-02T07:35:07;17.80;;;2.58;;
69057;SDS011;56128;37.534;-122.308;2022-11-02T07:37:35;18.80;;;2.92;;
69057;SDS011;56128;37.534;-122.308;2022-11-02T07:40:02;20.92;;;3.83;;
69057;SDS011;56128;37.534;-122.308;2022-11-02T07:42:30;24.58;;;2.80;;
69057;SDS011;56128;37.534;-122.308;2022-11-02T07:44:56;20.15;;;2.90;;
69057;SDS011;56128;37.534;-122.308;2022-11-02T07:47:22;18.25;;;2.78;;
69057;SDS011;56128;37.534;-122.308;2022-11-02T07:49:48;17.55;;;3.10;;
69057;SDS011;56128;37.534;-122.308;2022-11-02T07:52:14;14.23;;;2.83;;
69057;SDS011;56128;37.534;-122.308;2022-11-02T07:54:41;18.95;;;2.97;;
69057;SDS011;56128;37.534;-122.308;2022-11-02T07:57:07;20.95;;;2.78;;
69057;SDS011;56128;37.534;-122.308;2022-11-02T07:59:33;16.80;;;2.75;;
69057;SDS011;56128;37.534;-122.308;2022-11-02T08:02:01;15.45;;;2.58;;
69057;SDS011;56128;37.534;-122.308;2022-11-02T08:04:27;15.75;;;2.28;;
69057;SDS011;56128;37.534;-122.308;2022-11-02T08:06:53;13.50;;;2.30;;
69057;SDS011;56128;37.534;-122.308;2022-11-02T08:09:23;11.52;;;2.40;;
69057;SDS011;56128;37.534;-122.308;2022-11-02T08:11:49;12.07;;;3.03;;
69057;SDS011;56128;37.534;-122.308;2022-11-02T08:14:15;23.35;;;2.65;;
69057;SDS011;56128;37.534;-122.308;2022-11-02T08:16:41;9.13;;;2.47;;
69057;SDS011;56128;37.534;-122.308;2022-11-02T08:19:08;24.05;;;3.15;;
69057;SDS011;56128;37.534;-122.308;2022-11-02T08:21:34;23.58;;;2.33;;
69057;SDS011;56128;37.534;-122.308;2022-11-02T08:24:00;17.25;;;2.33;;
69057;SDS011;56128;37.534;-122.308;2022-11-02T08:26:26;14.80;;;2.50;;
69057;SDS011;56128;37.534;-122.308;2022-11-02T08:28:52;19.65;;;3.15;;
69057;SDS011;56128;37.534;-122.308;2022-11-02T08:31:18;13.40;;;2.50;;
69057;SDS011;56128;37.534;-122.308;2022-11-02T08:33:45;12.82;;;2.47;;
69057;SDS011;56128;37.534;-122.308;2022-11-02T08:36:11;12.13;;;2.00;;
69057;SDS011;56128;37.534;-122.308;2022-11-02T08:38:37;13.27;;;2.45;;
69057;SDS011;56128;37.534;-122.308;2022-11-02T08:41:04;10.13;;;2.10;;
69057;SDS011;56128;37.534;-122.308;2022-11-02T08:43:30;13.70;;;2.45;;
69057;SDS011;56128;37.534;-122.308;2022-11-02T08:45:57;14.55;;;2.83;;
69057;SDS011;56128;37.534;-122.308;2022-11-02T08:48:25;18.30;;;2.20;;
69057;SDS011;56128;37.534;-122.308;2022-11-02T08:50:51;11.02;;;2.05;;
69057;SDS011;56128;37.534;-122.308;2022-11-02T08:53:17;9.90;;;2.13;;
69057;SDS011;56128;37.534;-122.308;2022-11-02T08:55:43;16.88;;;2.20;;
69057;SDS011;56128;37.534;-122.308;2022-11-02T08:58:10;12.52;;;2.60;;
69057;SDS011;56128;37.534;-122.308;2022-11-02T09:00:36;9.88;;;2.10;;
69057;SDS011;56128;37.534;-122.308;2022-11-02T09:03:03;13.07;;;2.15;;
69057;SDS011;56128;37.534;-122.308;2022-11-02T09:05:32;14.57;;;2.25;;
69057;SDS011;56128;37.534;-122.308;2022-11-02T09:08:02;10.30;;;2.00;;
69057;SDS011;56128;37.534;-122.308;2022-11-02T09:10:30;11.55;;;1.83;;
69057;SDS011;56128;37.534;-122.308;2022-11-02T09:12:59;10.20;;;1.70;;
69057;SDS011;56128;37.534;-122.308;2022-11-02T09:15:27;14.05;;;2.50;;
69057;SDS011;56128;37.534;-122.308;2022-11-02T09:17:54;9.27;;;1.95;;
69057;SDS011;56128;37.534;-122.308;2022-11-02T09:20:20;11.25;;;2.67;;
69057;SDS011;56128;37.534;-122.308;2022-11-02T09:22:47;14.02;;;2.13;;
69057;SDS011;56128;37.534;-122.308;2022-11-02T09:25:14;14.20;;;2.30;;
69057;SDS011;56128;37.534;-122.308;2022-11-02T09:27:40;14.82;;;2.60;;
69057;SDS011;56128;37.534;-122.308;2022-11-02T09:30:07;8.77;;;2.00;;
69057;SDS011;56128;37.534;-122.308;2022-11-02T09:32:34;12.25;;;1.95;;
69057;SDS011;56128;37.534;-122.308;2022-11-02T09:35:05;13.68;;;2.00;;
69057;SDS011;56128;37.534;-122.308;2022-11-02T09:37:33;9.77;;;1.67;;
69057;SDS011;56128;37.534;-122.308;2022-11-02T09:40:00;8.43;;;1.70;;
69057;SDS011;56128;37.534;-122.308;2022-11-02T09:45:14;8.13;;;1.48;;
69057;SDS011;56128;37.534;-122.308;2022-11-02T09:47:43;9.85;;;1.65;;
69057;SDS011;56128;37.534;-122.308;2022-11-02T09:50:23;9.18;;;1.38;;
69057;SDS011;56128;37.534;-122.308;2022-11-02T09:52:54;9.18;;;1.70;;
69057;SDS011;56128;37.534;-122.308;2022-11-02T09:55:29;10.40;;;1.58;;
69057;SDS011;56128;37.534;-122.308;2022-11-02T09:58:01;10.02;;;1.90;;
69057;SDS011;56128;37.534;-122.308;2022-11-02T10:00:32;7.15;;;1.50;;
69057;SDS011;56128;37.534;-122.308;2022-11-02T10:03:19;11.02;;;1.60;;
69057;SDS011;56128;37.534;-122.308;2022-11-02T10:09:09;9.68;;;1.77;;
69057;SDS011;56128;37.534;-122.308;2022-11-02T10:11:51;10.20;;;1.40;;
69057;SDS011;56128;37.534;-122.308;2022-11-02T10:14:31;7.45;;;1.38;;
69057;SDS011;56128;37.534;-122.308;2022-11-02T10:19:33;8.90;;;1.60;;
69057;SDS011;56128;37.534;-122.308;2022-11-02T10:22:04;12.15;;;2.00;;
69057;SDS011;56128;37.534;-122.308;2022-11-02T10:24:35;8.30;;;1.52;;
69057;SDS011;56128;37.534;-122.308;2022-11-02T10:27:27;9.85;;;2.20;;
69057;SDS011;56128;37.534;-122.308;2022-11-02T10:30:05;9.02;;;1.55;;
69057;SDS011;56128;37.534;-122.308;2022-11-02T10:32:32;9.60;;;1.60;;
69057;SDS011;56128;37.534;-122.308;2022-11-02T10:35:01;8.95;;;1.58;;
69057;SDS011;56128;37.534;-122.308;2022-11-02T10:37:35;7.80;;;1.50;;
69057;SDS011;56128;37.534;-122.308;2022-11-02T10:40:15;9.30;;;1.67;;
69057;SDS011;56128;37.534;-122.308;2022-11-02T10:43:21;11.27;;;1.75;;
69057;SDS011;56128;37.534;-122.308;2022-11-02T10:48:46;9.65;;;2.33;;
69057;SDS011;56128;37.534;-122.308;2022-11-02T10:51:38;10.60;;;1.98;;
69057;SDS011;56128;37.534;-122.308;2022-11-02T10:54:07;8.90;;;1.65;;
69057;SDS011;56128;37.534;-122.308;2022-11-02T10:56:38;9.90;;;1.77;;
69057;SDS011;56128;37.534;-122.308;2022-11-02T11:01:44;9.00;;;1.63;;
69057;SDS011;56128;37.534;-122.308;2022-11-02T11:04:19;8.52;;;1.95;;
69057;SDS011;56128;37.534;-122.308;2022-11-02T11:06:49;11.68;;;2.05;;
69057;SDS011;56128;37.534;-122.308;2022-11-02T11:09:17;12.95;;;1.90;;
69057;SDS011;56128;37.534;-122.308;2022-11-02T11:11:53;9.48;;;1.40;;
69057;SDS011;56128;37.534;-122.308;2022-11-02T11:14:23;11.25;;;1.98;;
69057;SDS011;56128;37.534;-122.308;2022-11-02T11:16:57;9.75;;;1.70;;
69057;SDS011;56128;37.534;-122.308;2022-11-02T11:19:33;11.57;;;1.77;;
69057;SDS011;56128;37.534;-122.308;2022-11-02T11:22:01;9.13;;;1.60;;
69057;SDS011;56128;37.534;-122.308;2022-11-02T11:24:30;9.68;;;1.58;;
69057;SDS011;56128;37.534;-122.308;2022-11-02T11:29:33;9.73;;;1.80;;
69057;SDS011;56128;37.534;-122.308;2022-11-02T11:32:02;12.52;;;1.65;;
69057;SDS011;56128;37.534;-122.308;2022-11-02T11:34:30;8.60;;;1.70;;
69057;SDS011;56128;37.534;-122.308;2022-11-02T11:37:09;9.95;;;1.98;;
69057;SDS011;56128;37.534;-122.308;2022-11-02T11:39:39;15.52;;;2.80;;
69057;SDS011;56128;37.534;-122.308;2022-11-02T11:42:17;12.93;;;2.30;;
69057;SDS011;56128;37.534;-122.308;2022-11-02T11:45:29;11.25;;;2.28;;
69057;SDS011;56128;37.534;-122.308;2022-11-02T11:47:44;18.52;;;2.58;;
69057;SDS011;56128;37.534;-122.308;2022-11-02T11:50:15;15.18;;;2.42;;
69057;SDS011;56128;37.534;-122.308;2022-11-02T11:52:43;11.48;;;2.30;;
69057;SDS011;56128;37.534;-122.308;2022-11-02T11:55:19;17.33;;;2.58;;
69057;SDS011;56128;37.534;-122.308;2022-11-02T12:01:06;21.80;;;2.83;;
69057;SDS011;56128;37.534;-122.308;2022-11-02T12:09:06;15.40;;;2.60;;
69057;SDS011;56128;37.534;-122.308;2022-11-02T12:20:40;18.42;;;2.47;;
69057;SDS011;56128;37.534;-122.308;2022-11-02T12:26:39;15.15;;;2.47;;
69057;SDS011;56128;37.534;-122.308;2022-11-02T12:37:11;20.85;;;2.55;;
69057;SDS011;56128;37.534;-122.308;2022-11-02T12:45:23;17.10;;;2.83;;
69057;SDS011;56128;37.534;-122.308;2022-11-02T12:47:57;18.80;;;2.80;;
69057;SDS011;56128;37.534;-122.308;2022-11-02T12:56:16;20.42;;;2.80;;
69057;SDS011;56128;37.534;-122.308;2022-11-02T12:58:53;17.67;;;3.08;;
69057;SDS011;56128;37.534;-122.308;2022-11-02T13:01:29;19.60;;;2.95;;
69057;SDS011;56128;37.534;-122.308;2022-11-02T13:06:28;15.90;;;2.60;;
69057;SDS011;56128;37.534;-122.308;2022-11-02T13:09:03;26.10;;;3.22;;
69057;SDS011;56128;37.534;-122.308;2022-11-02T13:11:39;17.98;;;2.70;;
69057;SDS011;56128;37.534;-122.308;2022-11-02T13:14:15;18.30;;;3.05;;
69057;SDS011;56128;37.534;-122.308;2022-11-02T13:19:49;23.20;;;3.42;;
69057;SDS011;56128;37.534;-122.308;2022-11-02T13:22:20;23.73;;;2.92;;
69057;SDS011;56128;37.534;-122.308;2022-11-02T13:24:51;18.63;;;3.28;;
69057;SDS011;56128;37.534;-122.308;2022-11-02T13:27:24;19.25;;;2.90;;
69057;SDS011;56128;37.534;-122.308;2022-11-02T13:29:56;22.42;;;3.45;;
69057;SDS011;56128;37.534;-122.308;2022-11-02T13:35:04;14.63;;;2.95;;
69057;SDS011;56128;37.534;-122.308;2022-11-02T13:37:42;21.75;;;3.15;;
69057;SDS011;56128;37.534;-122.308;2022-11-02T13:40:14;20.63;;;3.47;;
69057;SDS011;56128;37.534;-122.308;2022-11-02T13:42:58;18.63;;;3.10;;
69057;SDS011;56128;37.534;-122.308;2022-11-02T13:45:38;21.60;;;3.45;;
69057;SDS011;56128;37.534;-122.308;2022-11-02T13:50:51;15.93;;;3.30;;
69057;SDS011;56128;37.534;-122.308;2022-11-02T13:53:21;21.88;;;3.38;;
69057;SDS011;56128;37.534;-122.308;2022-11-02T13:58:34;16.02;;;3.03;;
69057;SDS011;56128;37.534;-122.308;2022-11-02T14:01:05;20.73;;;3.40;;
69057;SDS011;56128;37.534;-122.308;2022-11-02T14:03:45;18.83;;;3.30;;
69057;SDS011;56128;37.534;-122.308;2022-11-02T14:06:16;23.20;;;4.55;;
69057;SDS011;56128;37.534;-122.308;2022-11-02T14:12:24;28.80;;;4.22;;
69057;SDS011;56128;37.534;-122.308;2022-11-02T14:20:31;22.90;;;3.17;;
69057;SDS011;56128;37.534;-122.308;2022-11-02T14:23:42;26.00;;;3.88;;
69057;SDS011;56128;37.534;-122.308;2022-11-02T14:25:59;22.88;;;3.25;;
69057;SDS011;56128;37.534;-122.308;2022-11-02T14:28:29;21.33;;;3.10;;
69057;SDS011;56128;37.534;-122.308;2022-11-02T14:31:22;18.90;;;3.25;;
69057;SDS011;56128;37.534;-122.308;2022-11-02T14:37:48;20.25;;;3.20;;
69057;SDS011;56128;37.534;-122.308;2022-11-02T14:42:24;21.00;;;4.00;;
69057;SDS011;56128;37.534;-122.308;2022-11-02T14:45:28;22.25;;;3.72;;
69057;SDS011;56128;37.534;-122.308;2022-11-02T14:48:05;19.90;;;3.35;;
69057;SDS011;56128;37.534;-122.308;2022-11-02T14:50:37;20.33;;;3.30;;
69057;SDS011;56128;37.534;-122.308;2022-11-02T14:53:05;16.45;;;3.80;;
69057;SDS011;56128;37.534;-122.308;2022-11-02T14:55:41;19.10;;;3.03;;
69057;SDS011;56128;37.534;-122.308;2022-11-02T14:58:17;25.95;;;3.65;;
69057;SDS011;56128;37.534;-122.308;2022-11-02T15:03:33;25.33;;;3.55;;
69057;SDS011;56128;37.534;-122.308;2022-11-02T15:06:23;12.00;;;2.78;;
69057;SDS011;56128;37.534;-122.308;2022-11-02T15:08:56;18.95;;;3.05;;
69057;SDS011;56128;37.534;-122.308;2022-11-02T15:19:42;18.80;;;3.08;;
69057;SDS011;56128;37.534;-122.308;2022-11-02T15:27:34;18.70;;;2.78;;
69057;SDS011;56128;37.534;-122.308;2022-11-02T15:30:04;15.75;;;3.05;;
69057;SDS011;56128;37.534;-122.308;2022-11-02T15:32:31;16.05;;;3.58;;
69057;SDS011;56128;37.534;-122.308;2022-11-02T15:35:03;16.17;;;3.23;;
69057;SDS011;56128;37.534;-122.308;2022-11-02T15:37:30;22.45;;;3.45;;
69057;SDS011;56128;37.534;-122.308;2022-11-02T15:39:58;20.52;;;3.28;;
69057;SDS011;56128;37.534;-122.308;2022-11-02T15:48:22;17.00;;;3.05;;
69057;SDS011;56128;37.534;-122.308;2022-11-02T16:02:35;16.70;;;3.13;;
69057;SDS011;56128;37.534;-122.308;2022-11-02T16:04:46;16.70;;;2.65;;
69057;SDS011;56128;37.534;-122.308;2022-11-02T16:07:15;16.77;;;3.08;;
69057;SDS011;56128;37.534;-122.308;2022-11-02T16:09:42;19.92;;;3.35;;
69057;SDS011;56128;37.534;-122.308;2022-11-02T16:12:17;16.48;;;2.97;;
69057;SDS011;56128;37.534;-122.308;2022-11-02T16:17:37;19.15;;;2.55;;
69057;SDS011;56128;37.534;-122.308;2022-11-02T16:20:13;12.95;;;2.35;;
69057;SDS011;56128;37.534;-122.308;2022-11-02T16:22:50;15.25;;;2.33;;
69057;SDS011;56128;37.534;-122.308;2022-11-02T16:25:45;12.52;;;2.45;;
69057;SDS011;56128;37.534;-122.308;2022-11-02T16:28:19;16.75;;;2.67;;
69057;SDS011;56128;37.534;-122.308;2022-11-02T16:33:40;14.18;;;2.72;;
69057;SDS011;56128;37.534;-122.308;2022-11-02T16:36:09;16.27;;;2.13;;
69057;SDS011;56128;37.534;-122.308;2022-11-02T16:38:38;12.65;;;2.78;;
69057;SDS011;56128;37.534;-122.308;2022-11-02T16:41:33;21.02;;;2.60;;
69057;SDS011;56128;37.534;-122.308;2022-11-02T16:44:10;13.82;;;2.25;;
69057;SDS011;56128;37.534;-122.308;2022-11-02T16:49:55;9.90;;;1.88;;
69057;SDS011;56128;37.534;-122.308;2022-11-02T16:52:27;10.02;;;2.00;;
69057;SDS011;56128;37.534;-122.308;2022-11-02T16:54:59;7.72;;;1.75;;
69057;SDS011;56128;37.534;-122.308;2022-11-02T16:57:26;8.27;;;1.60;;
69057;SDS011;56128;37.534;-122.308;2022-11-02T17:02:31;8.32;;;1.38;;
69057;SDS011;56128;37.534;-122.308;2022-11-02T17:05:03;6.10;;;1.50;;
69057;SDS011;56128;37.534;-122.308;2022-11-02T17:07:46;4.95;;;1.50;;
69057;SDS011;56128;37.534;-122.308;2022-11-02T17:10:25;10.57;;;1.40;;
69057;SDS011;56128;37.534;-122.308;2022-11-02T17:12:53;8.05;;;1.08;;